SKVV/VVC METAR and TAF weather

Enter ICAO airport designator
Station Type Date Time Source
SKVV METAR 2020/07/11 23:00 UTC NOAA

SKVV 112300Z 07004KT 9000 DZ SCT017 BKN090 22/21 A2994


Station Type Date Time Source
SKVV Decoded METAR 2020/07/11 23:00 UTC NOAA

Villavicencio / Vanguardia, Colombia (SKVV) 04-10N 073-37W 431M
Jul 11, 2020 - 07:00 PM EDT / 2020.07.11 2300 UTC
Wind: from the ENE (070 degrees) at 5 MPH (4 KT):0
Visibility: 5 mile(s):0
Sky conditions: mostly cloudy
Weather: drizzle
Temperature: 71 F (22 C)
Dew Point: 69 F (21 C)
Relative Humidity: 94%
Pressure (altimeter): 29.94 in. Hg (1013 hPa)
ob: SKVV 112300Z 07004KT 9000 DZ SCT017 BKN090 22/21 A2994
cycle: 23

Station Type Date Time Source
SKVV TAF UTC NOAA

Error!

Example: see airport list